sensor_id;sensor_type;location;lat;lon;timestamp;P1;durP1;ratioP1;P2;durP2;ratioP2
78072;SDS011;67281;48.770;11.440;2023-05-01T00:00:27;4.10;;;2.77;;
78072;SDS011;67281;48.770;11.440;2023-05-01T00:02:54;5.30;;;3.50;;
78072;SDS011;67281;48.770;11.440;2023-05-01T00:05:21;4.50;;;3.17;;
78072;SDS011;67281;48.770;11.440;2023-05-01T00:07:48;4.03;;;3.03;;
78072;SDS011;67281;48.770;11.440;2023-05-01T00:10:15;4.53;;;3.03;;
78072;SDS011;67281;48.770;11.440;2023-05-01T00:12:42;3.13;;;2.70;;
78072;SDS011;67281;48.770;11.440;2023-05-01T00:15:09;3.97;;;2.90;;
78072;SDS011;67281;48.770;11.440;2023-05-01T00:17:36;2.93;;;2.53;;
78072;SDS011;67281;48.770;11.440;2023-05-01T00:20:03;3.73;;;3.03;;
78072;SDS011;67281;48.770;11.440;2023-05-01T00:22:30;6.27;;;3.37;;
78072;SDS011;67281;48.770;11.440;2023-05-01T00:24:57;3.03;;;2.37;;
78072;SDS011;67281;48.770;11.440;2023-05-01T00:27:24;3.77;;;2.80;;
78072;SDS011;67281;48.770;11.440;2023-05-01T00:29:51;2.67;;;2.47;;
78072;SDS011;67281;48.770;11.440;2023-05-01T00:32:17;4.10;;;2.97;;
78072;SDS011;67281;48.770;11.440;2023-05-01T00:34:44;3.37;;;3.00;;
78072;SDS011;67281;48.770;11.440;2023-05-01T00:37:13;3.87;;;3.23;;
78072;SDS011;67281;48.770;11.440;2023-05-01T00:39:40;4.00;;;2.90;;
78072;SDS011;67281;48.770;11.440;2023-05-01T00:42:07;2.83;;;2.53;;
78072;SDS011;67281;48.770;11.440;2023-05-01T00:44:34;3.83;;;3.10;;
78072;SDS011;67281;48.770;11.440;2023-05-01T00:47:00;3.67;;;3.37;;
78072;SDS011;67281;48.770;11.440;2023-05-01T00:49:28;4.93;;;3.57;;
78072;SDS011;67281;48.770;11.440;2023-05-01T00:51:55;3.30;;;3.07;;
78072;SDS011;67281;48.770;11.440;2023-05-01T00:54:24;3.57;;;3.10;;
78072;SDS011;67281;48.770;11.440;2023-05-01T00:56:53;3.80;;;3.10;;
78072;SDS011;67281;48.770;11.440;2023-05-01T00:59:20;5.47;;;4.03;;
78072;SDS011;67281;48.770;11.440;2023-05-01T01:01:47;4.60;;;3.07;;
78072;SDS011;67281;48.770;11.440;2023-05-01T01:04:14;3.90;;;3.50;;
78072;SDS011;67281;48.770;11.440;2023-05-01T01:06:55;6.50;;;3.50;;
78072;SDS011;67281;48.770;11.440;2023-05-01T01:09:57;3.63;;;3.30;;
78072;SDS011;67281;48.770;11.440;2023-05-01T01:12:32;5.67;;;3.40;;
78072;SDS011;67281;48.770;11.440;2023-05-01T01:20:54;4.77;;;3.23;;
78072;SDS011;67281;48.770;11.440;2023-05-01T01:26:32;3.93;;;3.17;;
78072;SDS011;67281;48.770;11.440;2023-05-01T01:31:58;3.17;;;2.97;;
78072;SDS011;67281;48.770;11.440;2023-05-01T01:34:45;3.00;;;2.80;;
78072;SDS011;67281;48.770;11.440;2023-05-01T01:37:23;4.10;;;3.17;;
78072;SDS011;67281;48.770;11.440;2023-05-01T01:40:02;3.73;;;3.40;;
78072;SDS011;67281;48.770;11.440;2023-05-01T01:42:33;3.17;;;2.90;;
78072;SDS011;67281;48.770;11.440;2023-05-01T01:45:04;3.73;;;3.07;;
78072;SDS011;67281;48.770;11.440;2023-05-01T01:47:38;5.47;;;3.07;;
78072;SDS011;67281;48.770;11.440;2023-05-01T01:50:07;3.23;;;2.97;;
78072;SDS011;67281;48.770;11.440;2023-05-01T01:52:37;3.00;;;2.70;;
78072;SDS011;67281;48.770;11.440;2023-05-01T01:55:08;3.90;;;3.37;;
78072;SDS011;67281;48.770;11.440;2023-05-01T01:57:38;3.60;;;3.30;;
78072;SDS011;67281;48.770;11.440;2023-05-01T02:00:09;4.73;;;3.30;;
78072;SDS011;67281;48.770;11.440;2023-05-01T02:02:38;3.93;;;3.17;;
78072;SDS011;67281;48.770;11.440;2023-05-01T02:05:07;3.30;;;3.00;;
78072;SDS011;67281;48.770;11.440;2023-05-01T02:07:37;4.27;;;3.47;;
78072;SDS011;67281;48.770;11.440;2023-05-01T02:10:10;3.80;;;3.40;;
78072;SDS011;67281;48.770;11.440;2023-05-01T02:12:39;4.03;;;3.20;;
78072;SDS011;67281;48.770;11.440;2023-05-01T02:15:09;4.40;;;3.30;;
78072;SDS011;67281;48.770;11.440;2023-05-01T02:17:36;4.70;;;3.60;;
78072;SDS011;67281;48.770;11.440;2023-05-01T02:20:06;4.17;;;3.60;;
78072;SDS011;67281;48.770;11.440;2023-05-01T02:22:35;4.77;;;3.53;;
78072;SDS011;67281;48.770;11.440;2023-05-01T02:25:06;4.13;;;3.57;;
78072;SDS011;67281;48.770;11.440;2023-05-01T02:27:37;4.20;;;2.90;;
78072;SDS011;67281;48.770;11.440;2023-05-01T02:30:06;3.50;;;3.20;;
78072;SDS011;67281;48.770;11.440;2023-05-01T02:32:33;3.53;;;3.23;;
78072;SDS011;67281;48.770;11.440;2023-05-01T02:35:01;5.03;;;3.73;;
78072;SDS011;67281;48.770;11.440;2023-05-01T02:37:27;4.60;;;3.60;;
78072;SDS011;67281;48.770;11.440;2023-05-01T02:39:56;3.87;;;3.37;;
78072;SDS011;67281;48.770;11.440;2023-05-01T02:42:24;4.50;;;3.77;;
78072;SDS011;67281;48.770;11.440;2023-05-01T02:45:02;5.00;;;3.40;;
78072;SDS011;67281;48.770;11.440;2023-05-01T02:47:31;5.73;;;3.73;;
78072;SDS011;67281;48.770;11.440;2023-05-01T02:50:01;6.00;;;3.60;;
78072;SDS011;67281;48.770;11.440;2023-05-01T02:52:28;3.80;;;3.50;;
78072;SDS011;67281;48.770;11.440;2023-05-01T02:54:56;5.23;;;4.30;;
78072;SDS011;67281;48.770;11.440;2023-05-01T02:57:23;4.90;;;4.40;;
78072;SDS011;67281;48.770;11.440;2023-05-01T02:59:51;5.07;;;4.67;;
78072;SDS011;67281;48.770;11.440;2023-05-01T03:02:18;4.70;;;4.30;;
78072;SDS011;67281;48.770;11.440;2023-05-01T03:04:44;5.97;;;4.60;;
78072;SDS011;67281;48.770;11.440;2023-05-01T03:07:11;5.27;;;4.77;;
78072;SDS011;67281;48.770;11.440;2023-05-01T03:09:38;6.07;;;5.20;;
78072;SDS011;67281;48.770;11.440;2023-05-01T03:12:05;8.73;;;4.80;;
78072;SDS011;67281;48.770;11.440;2023-05-01T03:14:32;6.87;;;4.63;;
78072;SDS011;67281;48.770;11.440;2023-05-01T03:16:59;5.67;;;4.73;;
78072;SDS011;67281;48.770;11.440;2023-05-01T03:19:26;5.37;;;4.87;;
78072;SDS011;67281;48.770;11.440;2023-05-01T03:21:53;7.13;;;4.90;;
78072;SDS011;67281;48.770;11.440;2023-05-01T03:24:20;5.03;;;4.53;;
78072;SDS011;67281;48.770;11.440;2023-05-01T03:26:47;5.43;;;4.93;;
78072;SDS011;67281;48.770;11.440;2023-05-01T03:29:13;4.53;;;4.00;;
78072;SDS011;67281;48.770;11.440;2023-05-01T03:31:40;5.20;;;4.60;;
78072;SDS011;67281;48.770;11.440;2023-05-01T03:34:07;4.03;;;3.63;;
78072;SDS011;67281;48.770;11.440;2023-05-01T03:36:34;4.90;;;4.33;;
78072;SDS011;67281;48.770;11.440;2023-05-01T03:39:01;4.67;;;4.27;;
78072;SDS011;67281;48.770;11.440;2023-05-01T03:41:30;4.40;;;4.00;;
78072;SDS011;67281;48.770;11.440;2023-05-01T03:43:56;5.10;;;4.27;;
78072;SDS011;67281;48.770;11.440;2023-05-01T03:46:23;4.50;;;4.10;;
78072;SDS011;67281;48.770;11.440;2023-05-01T03:48:50;4.50;;;4.10;;
78072;SDS011;67281;48.770;11.440;2023-05-01T03:51:17;4.50;;;4.00;;
78072;SDS011;67281;48.770;11.440;2023-05-01T03:53:43;4.80;;;4.30;;
78072;SDS011;67281;48.770;11.440;2023-05-01T03:56:10;5.37;;;4.87;;
78072;SDS011;67281;48.770;11.440;2023-05-01T03:58:37;4.67;;;4.20;;
78072;SDS011;67281;48.770;11.440;2023-05-01T04:01:04;5.87;;;4.57;;
78072;SDS011;67281;48.770;11.440;2023-05-01T04:03:31;5.40;;;4.43;;
78072;SDS011;67281;48.770;11.440;2023-05-01T04:05:58;5.60;;;4.47;;
78072;SDS011;67281;48.770;11.440;2023-05-01T04:08:25;5.07;;;4.37;;
78072;SDS011;67281;48.770;11.440;2023-05-01T04:10:52;4.40;;;4.00;;
78072;SDS011;67281;48.770;11.440;2023-05-01T04:13:18;4.80;;;4.30;;
78072;SDS011;67281;48.770;11.440;2023-05-01T04:15:45;5.77;;;4.63;;
78072;SDS011;67281;48.770;11.440;2023-05-01T04:18:12;5.27;;;4.77;;
78072;SDS011;67281;48.770;11.440;2023-05-01T04:20:39;4.87;;;4.37;;
78072;SDS011;67281;48.770;11.440;2023-05-01T04:23:06;7.97;;;4.80;;
78072;SDS011;67281;48.770;11.440;2023-05-01T04:25:35;4.67;;;4.13;;
78072;SDS011;67281;48.770;11.440;2023-05-01T04:28:02;5.30;;;4.80;;
78072;SDS011;67281;48.770;11.440;2023-05-01T04:30:30;5.27;;;4.63;;
78072;SDS011;67281;48.770;11.440;2023-05-01T04:32:57;6.30;;;4.90;;
78072;SDS011;67281;48.770;11.440;2023-05-01T04:35:24;5.17;;;4.67;;
78072;SDS011;67281;48.770;11.440;2023-05-01T04:37:51;4.73;;;4.30;;
78072;SDS011;67281;48.770;11.440;2023-05-01T04:40:30;5.57;;;4.30;;
78072;SDS011;67281;48.770;11.440;2023-05-01T04:42:57;5.83;;;4.57;;
78072;SDS011;67281;48.770;11.440;2023-05-01T04:45:24;6.43;;;5.57;;
78072;SDS011;67281;48.770;11.440;2023-05-01T04:47:51;6.87;;;5.30;;
78072;SDS011;67281;48.770;11.440;2023-05-01T04:50:18;7.13;;;5.63;;
78072;SDS011;67281;48.770;11.440;2023-05-01T04:52:45;6.30;;;5.70;;
78072;SDS011;67281;48.770;11.440;2023-05-01T04:55:12;6.80;;;5.63;;
78072;SDS011;67281;48.770;11.440;2023-05-01T04:57:39;8.30;;;6.10;;
78072;SDS011;67281;48.770;11.440;2023-05-01T05:00:06;6.53;;;5.17;;
78072;SDS011;67281;48.770;11.440;2023-05-01T05:02:33;6.70;;;6.00;;
78072;SDS011;67281;48.770;11.440;2023-05-01T05:05:00;7.10;;;5.70;;
78072;SDS011;67281;48.770;11.440;2023-05-01T05:07:27;6.40;;;5.33;;
78072;SDS011;67281;48.770;11.440;2023-05-01T05:09:53;5.83;;;5.00;;
78072;SDS011;67281;48.770;11.440;2023-05-01T05:12:21;6.63;;;5.53;;
78072;SDS011;67281;48.770;11.440;2023-05-01T05:14:48;6.67;;;5.80;;
78072;SDS011;67281;48.770;11.440;2023-05-01T05:17:14;6.63;;;5.97;;
78072;SDS011;67281;48.770;11.440;2023-05-01T05:19:41;6.30;;;5.70;;
78072;SDS011;67281;48.770;11.440;2023-05-01T05:22:08;6.63;;;5.40;;
78072;SDS011;67281;48.770;11.440;2023-05-01T05:24:35;8.50;;;6.27;;
78072;SDS011;67281;48.770;11.440;2023-05-01T05:27:01;8.80;;;5.87;;
78072;SDS011;67281;48.770;11.440;2023-05-01T05:29:29;6.47;;;5.83;;
78072;SDS011;67281;48.770;11.440;2023-05-01T05:31:56;8.37;;;5.60;;
78072;SDS011;67281;48.770;11.440;2023-05-01T05:34:23;5.93;;;5.07;;
78072;SDS011;67281;48.770;11.440;2023-05-01T05:36:50;7.27;;;5.50;;
78072;SDS011;67281;48.770;11.440;2023-05-01T05:39:16;6.97;;;5.40;;
78072;SDS011;67281;48.770;11.440;2023-05-01T05:41:43;7.23;;;6.20;;
78072;SDS011;67281;48.770;11.440;2023-05-01T05:44:10;6.80;;;5.93;;
78072;SDS011;67281;48.770;11.440;2023-05-01T05:46:37;7.77;;;6.40;;
78072;SDS011;67281;48.770;11.440;2023-05-01T05:49:04;6.53;;;5.57;;
78072;SDS011;67281;48.770;11.440;2023-05-01T05:51:30;7.10;;;6.40;;
78072;SDS011;67281;48.770;11.440;2023-05-01T05:53:57;6.90;;;6.20;;
78072;SDS011;67281;48.770;11.440;2023-05-01T05:56:24;8.17;;;6.87;;
78072;SDS011;67281;48.770;11.440;2023-05-01T05:58:51;7.73;;;6.80;;
78072;SDS011;67281;48.770;11.440;2023-05-01T06:01:18;10.67;;;6.30;;
78072;SDS011;67281;48.770;11.440;2023-05-01T06:03:45;8.87;;;6.23;;
78072;SDS011;67281;48.770;11.440;2023-05-01T06:06:11;7.57;;;6.27;;
78072;SDS011;67281;48.770;11.440;2023-05-01T06:08:38;5.40;;;4.83;;
78072;SDS011;67281;48.770;11.440;2023-05-01T06:11:07;6.70;;;6.07;;
78072;SDS011;67281;48.770;11.440;2023-05-01T06:13:34;5.97;;;5.07;;
78072;SDS011;67281;48.770;11.440;2023-05-01T06:16:01;6.57;;;5.17;;
78072;SDS011;67281;48.770;11.440;2023-05-01T06:18:28;6.57;;;5.87;;
78072;SDS011;67281;48.770;11.440;2023-05-01T06:20:55;8.10;;;5.93;;
78072;SDS011;67281;48.770;11.440;2023-05-01T06:23:22;6.73;;;5.47;;
78072;SDS011;67281;48.770;11.440;2023-05-01T06:25:49;6.27;;;5.60;;
78072;SDS011;67281;48.770;11.440;2023-05-01T06:28:16;9.63;;;5.93;;
78072;SDS011;67281;48.770;11.440;2023-05-01T06:30:43;6.97;;;5.47;;
78072;SDS011;67281;48.770;11.440;2023-05-01T06:33:10;7.07;;;5.80;;
78072;SDS011;67281;48.770;11.440;2023-05-01T06:35:40;6.40;;;5.47;;
78072;SDS011;67281;48.770;11.440;2023-05-01T06:38:07;6.17;;;5.40;;
78072;SDS011;67281;48.770;11.440;2023-05-01T06:40:34;7.03;;;5.27;;
78072;SDS011;67281;48.770;11.440;2023-05-01T06:43:01;6.63;;;5.47;;
78072;SDS011;67281;48.770;11.440;2023-05-01T06:45:28;6.93;;;5.23;;
78072;SDS011;67281;48.770;11.440;2023-05-01T06:47:55;6.10;;;5.27;;
78072;SDS011;67281;48.770;11.440;2023-05-01T06:50:22;9.07;;;5.40;;
78072;SDS011;67281;48.770;11.440;2023-05-01T06:52:49;5.73;;;5.17;;
78072;SDS011;67281;48.770;11.440;2023-05-01T06:55:16;7.10;;;5.80;;
78072;SDS011;67281;48.770;11.440;2023-05-01T06:57:43;6.73;;;6.00;;
78072;SDS011;67281;48.770;11.440;2023-05-01T07:00:10;6.57;;;5.47;;
78072;SDS011;67281;48.770;11.440;2023-05-01T07:02:37;7.27;;;5.53;;
78072;SDS011;67281;48.770;11.440;2023-05-01T07:05:06;5.60;;;5.00;;
78072;SDS011;67281;48.770;11.440;2023-05-01T07:07:33;6.13;;;5.50;;
78072;SDS011;67281;48.770;11.440;2023-05-01T07:10:00;9.63;;;5.20;;
78072;SDS011;67281;48.770;11.440;2023-05-01T07:12:27;7.70;;;5.63;;
78072;SDS011;67281;48.770;11.440;2023-05-01T07:14:55;6.87;;;5.23;;
78072;SDS011;67281;48.770;11.440;2023-05-01T07:17:25;7.03;;;5.20;;
78072;SDS011;67281;48.770;11.440;2023-05-01T07:19:52;5.73;;;4.80;;
78072;SDS011;67281;48.770;11.440;2023-05-01T07:22:19;8.63;;;4.97;;
78072;SDS011;67281;48.770;11.440;2023-05-01T07:24:46;5.70;;;4.70;;
78072;SDS011;67281;48.770;11.440;2023-05-01T07:27:12;6.47;;;5.27;;
78072;SDS011;67281;48.770;11.440;2023-05-01T07:29:39;6.40;;;5.20;;
78072;SDS011;67281;48.770;11.440;2023-05-01T07:32:06;6.47;;;5.10;;
78072;SDS011;67281;48.770;11.440;2023-05-01T07:34:33;6.23;;;5.63;;
78072;SDS011;67281;48.770;11.440;2023-05-01T07:37:00;6.37;;;5.13;;
78072;SDS011;67281;48.770;11.440;2023-05-01T07:39:27;7.53;;;5.87;;
78072;SDS011;67281;48.770;11.440;2023-05-01T07:41:55;5.43;;;4.87;;
78072;SDS011;67281;48.770;11.440;2023-05-01T07:44:22;5.70;;;5.10;;
78072;SDS011;67281;48.770;11.440;2023-05-01T07:46:49;7.70;;;5.33;;
78072;SDS011;67281;48.770;11.440;2023-05-01T07:49:16;6.00;;;5.20;;
78072;SDS011;67281;48.770;11.440;2023-05-01T07:51:43;7.07;;;5.30;;
78072;SDS011;67281;48.770;11.440;2023-05-01T07:54:10;8.13;;;5.77;;
78072;SDS011;67281;48.770;11.440;2023-05-01T07:56:40;6.60;;;5.33;;
78072;SDS011;67281;48.770;11.440;2023-05-01T07:59:07;6.07;;;5.47;;
78072;SDS011;67281;48.770;11.440;2023-05-01T08:01:35;5.97;;;5.37;;
78072;SDS011;67281;48.770;11.440;2023-05-01T08:04:01;7.93;;;5.70;;
78072;SDS011;67281;48.770;11.440;2023-05-01T08:06:29;6.43;;;5.37;;
78072;SDS011;67281;48.770;11.440;2023-05-01T08:08:57;6.90;;;5.07;;
78072;SDS011;67281;48.770;11.440;2023-05-01T08:11:24;5.87;;;4.90;;
78072;SDS011;67281;48.770;11.440;2023-05-01T08:13:52;6.93;;;5.30;;
78072;SDS011;67281;48.770;11.440;2023-05-01T08:16:18;8.03;;;5.40;;
78072;SDS011;67281;48.770;11.440;2023-05-01T08:18:47;6.57;;;5.67;;
78072;SDS011;67281;48.770;11.440;2023-05-01T08:21:14;6.93;;;5.37;;
78072;SDS011;67281;48.770;11.440;2023-05-01T08:23:41;6.63;;;5.80;;
78072;SDS011;67281;48.770;11.440;2023-05-01T08:26:07;6.47;;;5.37;;
78072;SDS011;67281;48.770;11.440;2023-05-01T08:28:34;5.67;;;5.07;;
78072;SDS011;67281;48.770;11.440;2023-05-01T08:31:02;6.83;;;5.07;;
78072;SDS011;67281;48.770;11.440;2023-05-01T08:33:29;5.40;;;4.90;;
78072;SDS011;67281;48.770;11.440;2023-05-01T08:35:56;7.57;;;5.23;;
78072;SDS011;67281;48.770;11.440;2023-05-01T08:38:22;7.00;;;5.13;;
78072;SDS011;67281;48.770;11.440;2023-05-01T08:40:50;8.47;;;5.27;;
78072;SDS011;67281;48.770;11.440;2023-05-01T08:43:19;6.27;;;4.83;;
78072;SDS011;67281;48.770;11.440;2023-05-01T08:45:46;6.03;;;4.80;;
78072;SDS011;67281;48.770;11.440;2023-05-01T08:48:15;6.53;;;5.37;;
78072;SDS011;67281;48.770;11.440;2023-05-01T08:50:44;6.13;;;4.60;;
78072;SDS011;67281;48.770;11.440;2023-05-01T08:53:15;6.40;;;4.73;;
78072;SDS011;67281;48.770;11.440;2023-05-01T08:55:44;6.77;;;4.90;;
78072;SDS011;67281;48.770;11.440;2023-05-01T08:58:13;5.37;;;4.27;;
78072;SDS011;67281;48.770;11.440;2023-05-01T09:00:42;6.87;;;4.30;;
78072;SDS011;67281;48.770;11.440;2023-05-01T09:03:10;5.80;;;4.60;;
78072;SDS011;67281;48.770;11.440;2023-05-01T09:05:39;5.60;;;4.30;;
78072;SDS011;67281;48.770;11.440;2023-05-01T09:08:06;4.40;;;4.00;;
78072;SDS011;67281;48.770;11.440;2023-05-01T09:10:33;5.70;;;4.70;;
78072;SDS011;67281;48.770;11.440;2023-05-01T09:13:07;4.97;;;4.57;;
78072;SDS011;67281;48.770;11.440;2023-05-01T09:15:35;5.40;;;4.73;;
78072;SDS011;67281;48.770;11.440;2023-05-01T09:18:02;6.00;;;4.87;;
78072;SDS011;67281;48.770;11.440;2023-05-01T09:20:30;5.33;;;4.50;;
78072;SDS011;67281;48.770;11.440;2023-05-01T09:22:57;7.53;;;5.17;;
78072;SDS011;67281;48.770;11.440;2023-05-01T09:25:24;5.90;;;4.57;;
78072;SDS011;67281;48.770;11.440;2023-05-01T09:27:51;5.37;;;4.63;;
78072;SDS011;67281;48.770;11.440;2023-05-01T09:30:35;5.30;;;4.80;;
78072;SDS011;67281;48.770;11.440;2023-05-01T09:33:10;8.13;;;4.77;;
78072;SDS011;67281;48.770;11.440;2023-05-01T09:35:54;5.40;;;4.90;;
78072;SDS011;67281;48.770;11.440;2023-05-01T09:38:23;6.77;;;5.27;;
78072;SDS011;67281;48.770;11.440;2023-05-01T09:40:51;7.23;;;5.47;;
78072;SDS011;67281;48.770;11.440;2023-05-01T09:43:26;8.30;;;5.93;;
78072;SDS011;67281;48.770;11.440;2023-05-01T09:48:37;6.77;;;5.90;;
78072;SDS011;67281;48.770;11.440;2023-05-01T09:51:18;6.63;;;5.80;;
78072;SDS011;67281;48.770;11.440;2023-05-01T09:53:49;6.90;;;6.17;;
78072;SDS011;67281;48.770;11.440;2023-05-01T09:56:18;7.10;;;6.40;;
78072;SDS011;67281;48.770;11.440;2023-05-01T09:58:48;9.03;;;7.37;;
78072;SDS011;67281;48.770;11.440;2023-05-01T10:01:15;8.67;;;6.83;;
78072;SDS011;67281;48.770;11.440;2023-05-01T10:03:43;7.83;;;6.97;;
78072;SDS011;67281;48.770;11.440;2023-05-01T10:06:11;8.93;;;7.20;;
78072;SDS011;67281;48.770;11.440;2023-05-01T10:08:53;8.27;;;7.23;;
78072;SDS011;67281;48.770;11.440;2023-05-01T10:11:20;8.37;;;6.90;;
78072;SDS011;67281;48.770;11.440;2023-05-01T10:14:07;9.73;;;7.73;;
78072;SDS011;67281;48.770;11.440;2023-05-01T10:16:36;8.90;;;8.00;;
78072;SDS011;67281;48.770;11.440;2023-05-01T10:19:04;8.00;;;7.13;;
78072;SDS011;67281;48.770;11.440;2023-05-01T10:21:31;8.57;;;7.43;;
78072;SDS011;67281;48.770;11.440;2023-05-01T10:24:00;10.67;;;7.70;;
78072;SDS011;67281;48.770;11.440;2023-05-01T10:26:31;8.60;;;7.53;;
78072;SDS011;67281;48.770;11.440;2023-05-01T10:28:59;8.40;;;6.53;;
78072;SDS011;67281;48.770;11.440;2023-05-01T10:31:27;9.07;;;6.80;;
78072;SDS011;67281;48.770;11.440;2023-05-01T10:33:55;7.87;;;7.07;;
78072;SDS011;67281;48.770;11.440;2023-05-01T10:36:26;7.53;;;6.40;;
78072;SDS011;67281;48.770;11.440;2023-05-01T10:39:00;7.73;;;7.03;;
78072;SDS011;67281;48.770;11.440;2023-05-01T10:44:33;7.67;;;6.87;;
78072;SDS011;67281;48.770;11.440;2023-05-01T10:47:42;9.07;;;7.37;;
78072;SDS011;67281;48.770;11.440;2023-05-01T10:50:03;8.03;;;7.23;;
78072;SDS011;67281;48.770;11.440;2023-05-01T10:55:45;8.50;;;7.50;;
78072;SDS011;67281;48.770;11.440;2023-05-01T11:03:54;8.90;;;7.70;;
78072;SDS011;67281;48.770;11.440;2023-05-01T11:06:22;8.27;;;7.17;;
78072;SDS011;67281;48.770;11.440;2023-05-01T11:08:49;8.50;;;7.03;;
78072;SDS011;67281;48.770;11.440;2023-05-01T11:19:00;9.57;;;7.90;;
78072;SDS011;67281;48.770;11.440;2023-05-01T11:21:28;9.17;;;8.10;;
78072;SDS011;67281;48.770;11.440;2023-05-01T11:23:55;9.57;;;8.40;;
78072;SDS011;67281;48.770;11.440;2023-05-01T11:26:22;9.30;;;8.30;;
78072;SDS011;67281;48.770;11.440;2023-05-01T11:28:50;9.20;;;8.30;;
78072;SDS011;67281;48.770;11.440;2023-05-01T11:31:20;9.97;;;7.80;;
78072;SDS011;67281;48.770;11.440;2023-05-01T11:33:47;10.33;;;9.00;;
78072;SDS011;67281;48.770;11.440;2023-05-01T11:36:14;12.90;;;11.50;;
78072;SDS011;67281;48.770;11.440;2023-05-01T11:38:50;19.50;;;14.23;;
78072;SDS011;67281;48.770;11.440;2023-05-01T11:41:19;10.27;;;9.27;;
78072;SDS011;67281;48.770;11.440;2023-05-01T11:43:53;8.77;;;7.97;;
78072;SDS011;67281;48.770;11.440;2023-05-01T11:48:56;10.83;;;8.53;;
78072;SDS011;67281;48.770;11.440;2023-05-01T11:51:25;11.23;;;8.73;;
78072;SDS011;67281;48.770;11.440;2023-05-01T11:54:06;9.17;;;8.27;;
78072;SDS011;67281;48.770;11.440;2023-05-01T11:56:35;10.13;;;8.27;;
78072;SDS011;67281;48.770;11.440;2023-05-01T11:59:13;9.27;;;8.27;;
78072;SDS011;67281;48.770;11.440;2023-05-01T12:01:43;9.60;;;8.60;;
78072;SDS011;67281;48.770;11.440;2023-05-01T12:04:11;8.97;;;8.07;;
78072;SDS011;67281;48.770;11.440;2023-05-01T12:06:40;11.53;;;8.43;;
78072;SDS011;67281;48.770;11.440;2023-05-01T12:11:48;11.13;;;8.40;;
78072;SDS011;67281;48.770;11.440;2023-05-01T12:14:18;10.83;;;9.03;;
78072;SDS011;67281;48.770;11.440;2023-05-01T12:16:47;11.03;;;9.43;;
78072;SDS011;67281;48.770;11.440;2023-05-01T12:19:17;11.23;;;8.70;;
78072;SDS011;67281;48.770;11.440;2023-05-01T12:21:46;8.10;;;7.30;;
78072;SDS011;67281;48.770;11.440;2023-05-01T12:24:14;9.00;;;8.20;;
78072;SDS011;67281;48.770;11.440;2023-05-01T12:26:44;8.80;;;7.90;;
78072;SDS011;67281;48.770;11.440;2023-05-01T12:29:11;9.83;;;8.20;;
78072;SDS011;67281;48.770;11.440;2023-05-01T12:31:45;14.33;;;12.47;;
78072;SDS011;67281;48.770;11.440;2023-05-01T12:34:13;13.70;;;11.00;;
78072;SDS011;67281;48.770;11.440;2023-05-01T12:36:40;10.73;;;9.63;;
78072;SDS011;67281;48.770;11.440;2023-05-01T12:39:07;9.50;;;8.20;;
78072;SDS011;67281;48.770;11.440;2023-05-01T12:41:43;11.00;;;8.73;;
78072;SDS011;67281;48.770;11.440;2023-05-01T12:44:16;11.93;;;10.23;;
78072;SDS011;67281;48.770;11.440;2023-05-01T12:47:07;14.80;;;11.20;;
78072;SDS011;67281;48.770;11.440;2023-05-01T12:49:35;10.57;;;8.00;;
78072;SDS011;67281;48.770;11.440;2023-05-01T12:52:04;7.93;;;7.17;;
78072;SDS011;67281;48.770;11.440;2023-05-01T12:54:33;11.43;;;7.53;;
78072;SDS011;67281;48.770;11.440;2023-05-01T12:57:10;9.50;;;8.40;;
78072;SDS011;67281;48.770;11.440;2023-05-01T12:59:43;8.37;;;7.47;;
78072;SDS011;67281;48.770;11.440;2023-05-01T13:02:12;8.93;;;8.03;;
78072;SDS011;67281;48.770;11.440;2023-05-01T13:04:43;9.03;;;7.87;;
78072;SDS011;67281;48.770;11.440;2023-05-01T13:07:14;8.73;;;7.83;;
78072;SDS011;67281;48.770;11.440;2023-05-01T13:12:19;11.90;;;8.13;;
78072;SDS011;67281;48.770;11.440;2023-05-01T13:14:46;11.73;;;10.07;;
78072;SDS011;67281;48.770;11.440;2023-05-01T13:17:20;10.83;;;8.03;;
78072;SDS011;67281;48.770;11.440;2023-05-01T13:19:55;10.23;;;9.13;;
78072;SDS011;67281;48.770;11.440;2023-05-01T13:22:28;9.20;;;8.27;;
78072;SDS011;67281;48.770;11.440;2023-05-01T13:24:55;9.33;;;8.33;;
78072;SDS011;67281;48.770;11.440;2023-05-01T13:27:22;12.60;;;8.77;;
78072;SDS011;67281;48.770;11.440;2023-05-01T13:29:52;33.30;;;28.90;;
78072;SDS011;67281;48.770;11.440;2023-05-01T13:32:24;10.73;;;9.40;;
78072;SDS011;67281;48.770;11.440;2023-05-01T13:34:52;9.13;;;8.13;;
78072;SDS011;67281;48.770;11.440;2023-05-01T13:37:23;8.97;;;8.17;;
78072;SDS011;67281;48.770;11.440;2023-05-01T13:39:50;8.57;;;7.60;;
78072;SDS011;67281;48.770;11.440;2023-05-01T13:42:26;10.00;;;8.40;;
78072;SDS011;67281;48.770;11.440;2023-05-01T13:44:53;9.40;;;8.40;;
78072;SDS011;67281;48.770;11.440;2023-05-01T13:47:22;8.93;;;7.93;;
78072;SDS011;67281;48.770;11.440;2023-05-01T13:49:54;11.97;;;8.80;;
78072;SDS011;67281;48.770;11.440;2023-05-01T13:52:21;9.93;;;8.93;;
78072;SDS011;67281;48.770;11.440;2023-05-01T13:54:48;9.67;;;8.37;;
78072;SDS011;67281;48.770;11.440;2023-05-01T13:57:18;10.13;;;8.20;;
78072;SDS011;67281;48.770;11.440;2023-05-01T13:59:45;9.20;;;8.17;;
78072;SDS011;67281;48.770;11.440;2023-05-01T14:02:20;9.50;;;8.27;;
78072;SDS011;67281;48.770;11.440;2023-05-01T14:04:53;9.53;;;8.10;;
78072;SDS011;67281;48.770;11.440;2023-05-01T14:07:21;9.50;;;8.07;;
78072;SDS011;67281;48.770;11.440;2023-05-01T14:09:53;8.83;;;7.93;;
78072;SDS011;67281;48.770;11.440;2023-05-01T14:12:25;9.93;;;7.73;;
78072;SDS011;67281;48.770;11.440;2023-05-01T14:14:54;9.60;;;7.93;;
78072;SDS011;67281;48.770;11.440;2023-05-01T14:17:28;8.70;;;7.90;;
78072;SDS011;67281;48.770;11.440;2023-05-01T14:19:57;9.57;;;8.03;;
78072;SDS011;67281;48.770;11.440;2023-05-01T14:22:24;8.53;;;7.77;;
78072;SDS011;67281;48.770;11.440;2023-05-01T14:24:56;9.03;;;8.13;;
78072;SDS011;67281;48.770;11.440;2023-05-01T14:27:23;8.97;;;8.07;;
78072;SDS011;67281;48.770;11.440;2023-05-01T14:29:49;8.00;;;7.20;;
78072;SDS011;67281;48.770;11.440;2023-05-01T14:32:16;9.93;;;8.33;;
78072;SDS011;67281;48.770;11.440;2023-05-01T14:34:43;10.63;;;8.20;;
78072;SDS011;67281;48.770;11.440;2023-05-01T14:37:11;9.17;;;8.27;;
78072;SDS011;67281;48.770;11.440;2023-05-01T14:39:41;8.97;;;8.07;;
78072;SDS011;67281;48.770;11.440;2023-05-01T14:42:09;7.93;;;7.13;;
78072;SDS011;67281;48.770;11.440;2023-05-01T14:44:38;10.73;;;7.47;;
78072;SDS011;67281;48.770;11.440;2023-05-01T14:47:07;8.10;;;7.03;;
78072;SDS011;67281;48.770;11.440;2023-05-01T14:49:34;9.43;;;8.43;;
78072;SDS011;67281;48.770;11.440;2023-05-01T14:52:01;9.53;;;8.43;;
78072;SDS011;67281;48.770;11.440;2023-05-01T14:54:28;9.67;;;8.57;;
78072;SDS011;67281;48.770;11.440;2023-05-01T14:57:00;14.63;;;8.10;;
78072;SDS011;67281;48.770;11.440;2023-05-01T14:59:30;9.33;;;8.43;;
78072;SDS011;67281;48.770;11.440;2023-05-01T15:01:57;9.73;;;8.60;;
78072;SDS011;67281;48.770;11.440;2023-05-01T15:04:23;9.47;;;8.57;;
78072;SDS011;67281;48.770;11.440;2023-05-01T15:06:50;10.77;;;8.40;;
78072;SDS011;67281;48.770;11.440;2023-05-01T15:09:17;10.07;;;8.00;;
78072;SDS011;67281;48.770;11.440;2023-05-01T15:11:44;10.63;;;8.80;;
78072;SDS011;67281;48.770;11.440;2023-05-01T15:14:11;9.63;;;8.67;;
78072;SDS011;67281;48.770;11.440;2023-05-01T15:16:38;10.77;;;8.57;;
78072;SDS011;67281;48.770;11.440;2023-05-01T15:19:04;10.97;;;9.30;;
78072;SDS011;67281;48.770;11.440;2023-05-01T15:21:31;9.27;;;8.30;;
78072;SDS011;67281;48.770;11.440;2023-05-01T15:23:58;9.10;;;8.20;;